• Join FlightAware (Why Join?)
  • Login
  • US Flag 
02:55AM EDT


 

Airport Tracker/Info


-or-


 

Live Flight TrackerFlight Track Log ✈ QLK101D ✈ 24-May-2013 ✈ YCFS - YSSY / SYD

Flight Track Log - Related Links

Times and Time Zones

All times are in EDT time to prevent confusion due to time zone crossing. See the QLK101D flight status page for this flight to view local times or setup timezone preferences in your user account.

Time Position Orientation Groundspeed Altitude Reporting Facility
EDT Latitude Longitude Course Direction KTS MPH feet Rate Location/Type
04:59PM -30.3122 153.1172 222° Southwest 22,000  Level Aus ATC (Calculated)
05:01PM -30.4863 152.9768 215° Southwest  Level FlightAware Approximate
05:02PM -30.5733 152.9065 215° Southwest  Level FlightAware Approximate
05:02PM -30.4498 152.9743 215° Southwest 194 223 8,500  Level Aus ATC (RADAR)
05:02PM -30.4960 152.9411 212° Southwest 226 260 11,000 2,280 Climbing Aus ATC (RADAR)
05:03PM -30.4991 152.8918 266° West 241 277 12,000 1,860 Climbing Aus ATC (RADAR)
05:04PM -30.5207 152.8534 237° Southwest 241 277 13,200 1,920 Climbing Aus ATC (RADAR)
05:04PM -30.5378 152.8186 240° Southwest 245 282 14,100 1,620 Climbing Aus ATC (RADAR)
05:05PM -30.5542 152.7197 259° West 268 308 15,900 1,620 Climbing Aus ATC (RADAR)
05:06PM -30.5883 152.6996 207° Southwest 261 300 16,800 1,620 Climbing Aus ATC (RADAR)
05:06PM -30.6237 152.6750 211° Southwest 254 292 17,700 1,500 Climbing Aus ATC (RADAR)
05:07PM -30.6613 152.6566 203° Southwest 251 289 18,600 1,560 Climbing Aus ATC (RADAR)
05:07PM -30.6935 152.6356 209° Southwest 263 303 19,400 1,260 Climbing Aus ATC (RADAR)
05:08PM -30.7309 152.6105 210° Southwest 269 310 20,000 420 Climbing Aus ATC (RADAR)
05:09PM -30.7733 152.5876 205° Southwest 289 333 19,900 -120 Descending Aus ATC (RADAR)
05:09PM -30.8119 152.5637 208° Southwest 311 358 19,900  Level Aus ATC (RADAR)
05:11PM -30.9282 152.4932 207° Southwest 339 390 19,900  Level Aus ATC (RADAR)
05:11PM -30.9645 152.4726 206° Southwest 345 397 19,900  Level Aus ATC (RADAR)
05:11PM -30.9995 152.4501 209° Southwest 347 399 19,900  Level Aus ATC (RADAR)
05:12PM -31.0497 152.4198 207° Southwest 348 400 19,900  Level Aus ATC (RADAR)
05:13PM -31.0974 152.3886 209° Southwest 336 387 19,900 -180 Level Aus ATC (RADAR)
05:13PM -31.1439 152.3609 207° Southwest 325 374 19,700 -480 Descending Aus ATC (RADAR)
05:14PM -31.1822 152.3369 208° Southwest 315 362 19,400 -480 Descending Aus ATC (RADAR)
05:14PM -31.2260 152.3109 207° Southwest 305 351 19,200 -480 Descending Aus ATC (RADAR)
05:15PM -31.3111 152.2592 207° Southwest 295 339 18,600 -540 Descending Aus ATC (RADAR)
05:16PM -31.3417 152.2406 207° Southwest 296 341 18,400 -540 Descending Aus ATC (RADAR)
05:16PM -31.3671 152.2261 206° Southwest 301 346 18,200 -600 Descending Aus ATC (RADAR)
05:17PM -31.4120 152.1987 207° Southwest 313 360 17,900 -240 Descending Aus ATC (RADAR)
05:17PM -31.4703 152.1627 208° Southwest 317 365 17,900  Level Aus ATC (RADAR)
05:18PM -31.5098 152.1388 207° Southwest 321 369 17,900  Level Aus ATC (RADAR)
05:19PM -31.5550 152.1108 208° Southwest 317 365 17,900  Level Aus ATC (RADAR)
05:19PM -31.6015 152.0831 207° Southwest 324 373 17,900 60 Level Aus ATC (RADAR)
05:20PM -31.6451 152.0550 209° Southwest 322 371 18,000  Climbing Aus ATC (RADAR)
05:22PM -31.7969 151.9603 208° Southwest 331 381 17,900 -60 Descending Aus ATC (RADAR)
05:22PM -31.8169 151.9479 208° Southwest 329 379 17,900  Level Aus ATC (RADAR)
05:22PM -31.8604 151.9195 209° Southwest 310 357 17,900 60 Level Aus ATC (RADAR)
05:23PM -31.9004 151.8948 208° Southwest 293 337 18,000 240 Climbing Aus ATC (RADAR)
05:23PM -31.9388 151.8711 208° Southwest 293 337 18,200 180 Climbing Aus ATC (RADAR)
05:24PM -31.9803 151.8457 207° Southwest 290 334 18,200  Level Aus ATC (RADAR)
05:25PM -32.0257 151.8169 208° Southwest 289 333 18,200  Level Aus ATC (RADAR)
05:26PM -32.1312 151.7512 208° Southwest 282 325 18,200  Level Aus ATC (RADAR)
05:27PM -32.1608 151.7327 208° Southwest 285 328 18,200  Level Aus ATC (RADAR)
05:27PM -32.2047 151.7058 207° Southwest 290 334 18,200  Level Aus ATC (RADAR)
05:28PM -32.2550 151.6730 209° Southwest 285 328 18,200  Level Aus ATC (RADAR)
05:28PM -32.2926 151.6502 207° Southwest 287 330 18,200  Level Aus ATC (RADAR)
05:29PM -32.3394 151.6207 208° Southwest 287 330 18,200  Level Aus ATC (RADAR)
05:30PM -32.3748 151.5983 208° Southwest 288 331 18,200  Level Aus ATC (RADAR)
05:31PM -32.4933 151.5231 208° Southwest 291 335 18,200  Level Aus ATC (RADAR)
05:32PM -32.5231 151.5042 208° Southwest 292 336 18,200  Level Aus ATC (RADAR)
05:32PM -32.5651 151.4778 208° Southwest 293 337 18,200  Level Aus ATC (RADAR)
05:33PM -32.6193 151.4433 208° Southwest 295 339 18,200  Level Aus ATC (RADAR)
05:34PM -32.6595 151.4175 208° Southwest 295 339 18,200  Level Aus ATC (RADAR)
05:34PM -32.6984 151.3932 208° Southwest 298 343 18,200  Level Aus ATC (RADAR)
05:35PM -32.7408 151.3662 208° Southwest 297 342 18,200  Level Aus ATC (RADAR)
05:36PM -32.8255 151.3128 208° Southwest 295 339 18,200  Level Aus ATC (RADAR)
05:36PM -32.8617 151.2894 208° Southwest 295 339 18,200  Level Aus ATC (RADAR)
05:37PM -32.9040 151.2624 208° Southwest 296 341 18,200  Level Aus ATC (RADAR)
05:38PM -32.9466 151.2359 208° Southwest 295 339 18,200  Level Aus ATC (RADAR)
05:38PM -32.9949 151.2317 184° South 291 335 18,200 -120 Level Aus ATC (RADAR)
05:39PM -33.0435 151.2311 181° South 295 339 18,100 -960 Descending Aus ATC (RADAR)
05:39PM -33.0898 151.2273 184° South 302 348 17,100 -1,680 Descending Aus ATC (RADAR)
05:40PM -33.1329 151.2259 182° South 291 335 16,300 -1,500 Descending Aus ATC (RADAR)
05:41PM -33.2423 151.2203 182° South 265 305 14,200 -1,500 Descending Aus ATC (RADAR)
05:42PM -33.2716 151.2182 183° South 253 291 13,600 -1,320 Descending Aus ATC (RADAR)
05:42PM -33.3103 151.2155 183° South 234 269 12,900 -1,320 Descending Aus ATC (RADAR)
05:43PM -33.3543 151.2143 181° South 234 269 12,000 -1,320 Descending Aus ATC (RADAR)
05:43PM -33.3974 151.2118 183° South 237 273 11,200 -1,200 Descending Aus ATC (RADAR)
05:44PM -33.4314 151.2012 195° South 236 272 10,600 -1,200 Descending Aus ATC (RADAR)
05:45PM -33.4648 151.1815 206° Southwest 226 260 9,900 -1,320 Descending Aus ATC (RADAR)
05:45PM -33.4956 151.1578 213° Southwest 227 261 9,100 -1,260 Descending Aus ATC (RADAR)
05:47PM -33.5836 151.1008 208° Southwest 205 236 7,300 -1,020 Descending Aus ATC (RADAR)
05:47PM -33.6054 151.1002 181° South 188 216 7,100 -600 Descending Aus ATC (RADAR)
05:48PM -33.6348 151.1057 171° South 177 204 6,700 -1,080 Descending Aus ATC (RADAR)
05:48PM -33.6694 151.1180 163° South 167 192 5,700 -1,140 Descending Aus ATC (RADAR)
05:49PM -33.6947 151.1205 175° South 152 175 5,200 -840 Descending Aus ATC (RADAR)
05:50PM -33.7269 151.1310 165° South 160 184 4,600 -900 Descending Aus ATC (RADAR)
05:50PM -33.7462 151.1362 167° South 164 189 4,200 -900 Descending Aus ATC (RADAR)
05:52PM -33.8163 151.1541 168° South 160 184 2,800 -900 Descending Aus ATC (RADAR)
05:52PM -33.8354 151.1588 168° South 162 186 2,400 -900 Descending Aus ATC (RADAR)
05:53PM -33.8620 151.1658 168° South 163 188 1,900 -900 Descending Aus ATC (RADAR)
05:53PM -33.8902 151.1731 168° South 147 169 1,300 -840 Descending Aus ATC (RADAR)
05:54PM -33.9113 151.1786 168° South 129 148 900 -720 Descending Aus ATC (RADAR)
05:55PM -33.9318 151.1838 168° South 126 145 500 -720 Descending Aus ATC (RADAR)
05:55PM -33.9508 151.1886 168° South 116 133 100 -720 Descending Aus ATC (RADAR)